sensor_id;sensor_type;location;lat;lon;timestamp;temperature;humidity
16160;DHT22;8185;57.818;15.224;2024-01-30T00:00:50;3.10;99.90
16160;DHT22;8185;57.818;15.224;2024-01-30T00:03:18;3.10;99.90
16160;DHT22;8185;57.818;15.224;2024-01-30T00:05:45;3.20;99.90
16160;DHT22;8185;57.818;15.224;2024-01-30T00:08:12;3.30;99.90
16160;DHT22;8185;57.818;15.224;2024-01-30T00:10:40;3.40;99.90
16160;DHT22;8185;57.818;15.224;2024-01-30T00:13:07;3.40;99.90
16160;DHT22;8185;57.818;15.224;2024-01-30T00:15:34;3.50;99.90
16160;DHT22;8185;57.818;15.224;2024-01-30T00:18:01;3.50;99.90
16160;DHT22;8185;57.818;15.224;2024-01-30T00:20:28;3.50;99.90
16160;DHT22;8185;57.818;15.224;2024-01-30T00:22:55;3.40;99.90
16160;DHT22;8185;57.818;15.224;2024-01-30T00:25:22;3.40;99.90
16160;DHT22;8185;57.818;15.224;2024-01-30T00:27:50;3.40;99.90
16160;DHT22;8185;57.818;15.224;2024-01-30T00:30:17;3.30;99.90
16160;DHT22;8185;57.818;15.224;2024-01-30T00:32:45;3.40;99.90
16160;DHT22;8185;57.818;15.224;2024-01-30T00:35:12;3.30;99.90
16160;DHT22;8185;57.818;15.224;2024-01-30T00:37:39;3.30;99.90
16160;DHT22;8185;57.818;15.224;2024-01-30T00:40:06;3.40;99.90
16160;DHT22;8185;57.818;15.224;2024-01-30T00:42:35;3.30;99.90
16160;DHT22;8185;57.818;15.224;2024-01-30T00:45:04;3.30;99.90
16160;DHT22;8185;57.818;15.224;2024-01-30T00:47:32;3.20;99.90
16160;DHT22;8185;57.818;15.224;2024-01-30T00:49:59;3.20;99.90
16160;DHT22;8185;57.818;15.224;2024-01-30T00:52:26;3.20;99.90
16160;DHT22;8185;57.818;15.224;2024-01-30T00:54:53;3.20;99.90
16160;DHT22;8185;57.818;15.224;2024-01-30T00:57:20;3.20;99.90
16160;DHT22;8185;57.818;15.224;2024-01-30T00:59:46;3.20;99.90
16160;DHT22;8185;57.818;15.224;2024-01-30T01:02:15;3.10;99.90
16160;DHT22;8185;57.818;15.224;2024-01-30T01:04:43;3.10;99.90
16160;DHT22;8185;57.818;15.224;2024-01-30T01:07:10;3.00;99.90
16160;DHT22;8185;57.818;15.224;2024-01-30T01:09:37;2.90;99.90
16160;DHT22;8185;57.818;15.224;2024-01-30T01:12:04;2.80;99.90
16160;DHT22;8185;57.818;15.224;2024-01-30T01:14:31;2.80;99.90
16160;DHT22;8185;57.818;15.224;2024-01-30T01:16:58;2.80;99.90
16160;DHT22;8185;57.818;15.224;2024-01-30T01:19:26;2.80;99.90
16160;DHT22;8185;57.818;15.224;2024-01-30T01:21:53;2.80;99.90
16160;DHT22;8185;57.818;15.224;2024-01-30T01:24:20;2.80;99.90
16160;DHT22;8185;57.818;15.224;2024-01-30T01:26:47;2.80;99.90
16160;DHT22;8185;57.818;15.224;2024-01-30T01:29:14;2.80;99.90
16160;DHT22;8185;57.818;15.224;2024-01-30T01:31:41;2.80;99.90
16160;DHT22;8185;57.818;15.224;2024-01-30T01:34:09;2.70;99.90
16160;DHT22;8185;57.818;15.224;2024-01-30T01:36:37;2.70;99.90
16160;DHT22;8185;57.818;15.224;2024-01-30T01:39:04;2.70;99.90
16160;DHT22;8185;57.818;15.224;2024-01-30T01:41:31;2.70;99.90
16160;DHT22;8185;57.818;15.224;2024-01-30T01:43:58;2.70;99.90
16160;DHT22;8185;57.818;15.224;2024-01-30T01:46:26;2.70;99.90
16160;DHT22;8185;57.818;15.224;2024-01-30T01:48:54;2.70;99.90
16160;DHT22;8185;57.818;15.224;2024-01-30T01:51:21;2.70;99.90
16160;DHT22;8185;57.818;15.224;2024-01-30T01:53:50;2.80;99.90
16160;DHT22;8185;57.818;15.224;2024-01-30T01:56:17;2.80;99.90
16160;DHT22;8185;57.818;15.224;2024-01-30T01:58:44;2.80;99.90
16160;DHT22;8185;57.818;15.224;2024-01-30T02:01:13;2.80;99.90
16160;DHT22;8185;57.818;15.224;2024-01-30T02:03:40;2.80;99.90
16160;DHT22;8185;57.818;15.224;2024-01-30T02:06:07;2.80;99.90
16160;DHT22;8185;57.818;15.224;2024-01-30T02:08:36;2.90;99.90
16160;DHT22;8185;57.818;15.224;2024-01-30T02:11:05;2.90;99.90
16160;DHT22;8185;57.818;15.224;2024-01-30T02:13:32;2.80;99.90
16160;DHT22;8185;57.818;15.224;2024-01-30T02:16:00;2.80;99.90
16160;DHT22;8185;57.818;15.224;2024-01-30T02:18:27;2.80;99.90
16160;DHT22;8185;57.818;15.224;2024-01-30T02:20:54;2.80;99.90
16160;DHT22;8185;57.818;15.224;2024-01-30T02:23:24;2.70;99.90
16160;DHT22;8185;57.818;15.224;2024-01-30T02:25:51;2.80;99.90
16160;DHT22;8185;57.818;15.224;2024-01-30T02:28:18;2.80;99.90
16160;DHT22;8185;57.818;15.224;2024-01-30T02:30:46;2.80;99.90
16160;DHT22;8185;57.818;15.224;2024-01-30T02:33:13;2.80;99.90
16160;DHT22;8185;57.818;15.224;2024-01-30T02:35:40;2.90;99.90
16160;DHT22;8185;57.818;15.224;2024-01-30T02:38:07;2.90;99.90
16160;DHT22;8185;57.818;15.224;2024-01-30T02:40:35;2.90;99.90
16160;DHT22;8185;57.818;15.224;2024-01-30T02:43:02;2.90;99.90
16160;DHT22;8185;57.818;15.224;2024-01-30T02:45:29;2.90;99.90
16160;DHT22;8185;57.818;15.224;2024-01-30T02:47:57;3.00;99.90
16160;DHT22;8185;57.818;15.224;2024-01-30T02:50:24;3.00;99.90
16160;DHT22;8185;57.818;15.224;2024-01-30T02:52:51;3.10;99.90
16160;DHT22;8185;57.818;15.224;2024-01-30T02:55:17;3.10;99.90
16160;DHT22;8185;57.818;15.224;2024-01-30T02:57:46;3.10;99.90
16160;DHT22;8185;57.818;15.224;2024-01-30T03:00:13;3.10;99.90
16160;DHT22;8185;57.818;15.224;2024-01-30T03:02:40;3.10;99.90
16160;DHT22;8185;57.818;15.224;2024-01-30T03:05:07;3.00;99.90
16160;DHT22;8185;57.818;15.224;2024-01-30T03:07:34;3.00;99.90
16160;DHT22;8185;57.818;15.224;2024-01-30T03:10:01;3.00;99.90
16160;DHT22;8185;57.818;15.224;2024-01-30T03:12:28;2.90;99.90
16160;DHT22;8185;57.818;15.224;2024-01-30T03:14:57;2.90;99.90
16160;DHT22;8185;57.818;15.224;2024-01-30T03:17:24;2.90;99.90
16160;DHT22;8185;57.818;15.224;2024-01-30T03:19:51;2.90;99.90
16160;DHT22;8185;57.818;15.224;2024-01-30T03:22:18;3.00;99.90
16160;DHT22;8185;57.818;15.224;2024-01-30T03:24:45;3.00;99.90
16160;DHT22;8185;57.818;15.224;2024-01-30T03:27:12;3.40;99.90
16160;DHT22;8185;57.818;15.224;2024-01-30T03:29:39;3.00;99.90
16160;DHT22;8185;57.818;15.224;2024-01-30T03:32:07;3.00;99.90
16160;DHT22;8185;57.818;15.224;2024-01-30T03:34:34;3.00;99.90
16160;DHT22;8185;57.818;15.224;2024-01-30T03:37:01;3.10;99.90
16160;DHT22;8185;57.818;15.224;2024-01-30T03:39:28;3.00;99.90
16160;DHT22;8185;57.818;15.224;2024-01-30T03:41:55;3.00;99.90
16160;DHT22;8185;57.818;15.224;2024-01-30T03:44:22;3.00;99.90
16160;DHT22;8185;57.818;15.224;2024-01-30T03:46:50;3.00;99.90
16160;DHT22;8185;57.818;15.224;2024-01-30T03:49:18;3.00;99.90
16160;DHT22;8185;57.818;15.224;2024-01-30T03:51:45;3.00;99.90
16160;DHT22;8185;57.818;15.224;2024-01-30T03:54:13;3.00;99.90
16160;DHT22;8185;57.818;15.224;2024-01-30T03:56:39;3.00;99.90
16160;DHT22;8185;57.818;15.224;2024-01-30T03:59:07;3.00;99.90
16160;DHT22;8185;57.818;15.224;2024-01-30T04:01:34;3.00;99.90
16160;DHT22;8185;57.818;15.224;2024-01-30T04:04:01;3.00;99.90
16160;DHT22;8185;57.818;15.224;2024-01-30T04:06:29;3.00;99.90
16160;DHT22;8185;57.818;15.224;2024-01-30T04:08:56;3.00;99.90
16160;DHT22;8185;57.818;15.224;2024-01-30T04:11:23;3.00;99.90
16160;DHT22;8185;57.818;15.224;2024-01-30T04:13:50;3.00;99.90
16160;DHT22;8185;57.818;15.224;2024-01-30T04:16:20;3.00;99.90
16160;DHT22;8185;57.818;15.224;2024-01-30T04:18:47;3.10;99.90
16160;DHT22;8185;57.818;15.224;2024-01-30T04:21:14;3.00;99.90
16160;DHT22;8185;57.818;15.224;2024-01-30T04:23:43;3.00;99.90
16160;DHT22;8185;57.818;15.224;2024-01-30T04:26:10;3.00;99.90
16160;DHT22;8185;57.818;15.224;2024-01-30T04:28:36;3.00;99.90
16160;DHT22;8185;57.818;15.224;2024-01-30T04:31:03;3.00;99.90
16160;DHT22;8185;57.818;15.224;2024-01-30T04:33:30;3.00;99.90
16160;DHT22;8185;57.818;15.224;2024-01-30T04:35:57;2.90;99.90
16160;DHT22;8185;57.818;15.224;2024-01-30T04:38:24;2.90;99.90
16160;DHT22;8185;57.818;15.224;2024-01-30T04:40:52;3.00;99.90
16160;DHT22;8185;57.818;15.224;2024-01-30T04:43:19;3.00;99.90
16160;DHT22;8185;57.818;15.224;2024-01-30T04:45:47;2.90;99.90
16160;DHT22;8185;57.818;15.224;2024-01-30T04:48:14;2.90;99.90
16160;DHT22;8185;57.818;15.224;2024-01-30T04:50:41;2.90;99.90
16160;DHT22;8185;57.818;15.224;2024-01-30T04:53:08;2.90;99.90
16160;DHT22;8185;57.818;15.224;2024-01-30T04:55:35;2.90;99.90
16160;DHT22;8185;57.818;15.224;2024-01-30T04:58:03;2.90;99.90
16160;DHT22;8185;57.818;15.224;2024-01-30T05:00:30;2.90;99.90
16160;DHT22;8185;57.818;15.224;2024-01-30T05:02:57;2.90;99.90
16160;DHT22;8185;57.818;15.224;2024-01-30T05:05:24;2.80;99.90
16160;DHT22;8185;57.818;15.224;2024-01-30T05:07:51;2.80;99.90
16160;DHT22;8185;57.818;15.224;2024-01-30T05:10:18;2.90;99.90
16160;DHT22;8185;57.818;15.224;2024-01-30T05:12:45;3.00;99.90
16160;DHT22;8185;57.818;15.224;2024-01-30T05:15:13;3.00;99.90
16160;DHT22;8185;57.818;15.224;2024-01-30T05:17:40;3.00;99.90
16160;DHT22;8185;57.818;15.224;2024-01-30T05:20:08;3.10;99.90
16160;DHT22;8185;57.818;15.224;2024-01-30T05:22:36;3.10;99.90
16160;DHT22;8185;57.818;15.224;2024-01-30T05:25:03;3.10;99.90
16160;DHT22;8185;57.818;15.224;2024-01-30T05:27:30;3.20;99.90
16160;DHT22;8185;57.818;15.224;2024-01-30T05:29:57;3.20;99.90
16160;DHT22;8185;57.818;15.224;2024-01-30T05:32:25;3.20;99.90
16160;DHT22;8185;57.818;15.224;2024-01-30T05:34:52;3.10;99.90
16160;DHT22;8185;57.818;15.224;2024-01-30T05:37:19;3.10;99.90
16160;DHT22;8185;57.818;15.224;2024-01-30T05:39:46;3.10;99.90
16160;DHT22;8185;57.818;15.224;2024-01-30T05:42:13;3.10;99.90
16160;DHT22;8185;57.818;15.224;2024-01-30T05:44:42;3.10;99.90
16160;DHT22;8185;57.818;15.224;2024-01-30T05:47:09;3.10;99.90
16160;DHT22;8185;57.818;15.224;2024-01-30T05:49:37;3.10;99.90
16160;DHT22;8185;57.818;15.224;2024-01-30T05:52:05;3.10;99.90
16160;DHT22;8185;57.818;15.224;2024-01-30T05:54:32;3.20;99.90
16160;DHT22;8185;57.818;15.224;2024-01-30T05:56:59;3.30;99.90
16160;DHT22;8185;57.818;15.224;2024-01-30T05:59:26;3.30;99.90
16160;DHT22;8185;57.818;15.224;2024-01-30T06:01:53;3.30;99.90
16160;DHT22;8185;57.818;15.224;2024-01-30T06:04:20;3.30;99.90
16160;DHT22;8185;57.818;15.224;2024-01-30T06:06:48;3.30;99.90
16160;DHT22;8185;57.818;15.224;2024-01-30T06:09:15;3.30;99.90
16160;DHT22;8185;57.818;15.224;2024-01-30T06:11:42;3.20;99.90
16160;DHT22;8185;57.818;15.224;2024-01-30T06:14:09;3.60;99.90
16160;DHT22;8185;57.818;15.224;2024-01-30T06:16:36;3.30;99.90
16160;DHT22;8185;57.818;15.224;2024-01-30T06:19:03;3.30;99.90
16160;DHT22;8185;57.818;15.224;2024-01-30T06:21:31;3.30;99.90
16160;DHT22;8185;57.818;15.224;2024-01-30T06:24:03;3.40;99.90
16160;DHT22;8185;57.818;15.224;2024-01-30T06:26:30;3.30;99.90
16160;DHT22;8185;57.818;15.224;2024-01-30T06:28:57;3.30;99.90
16160;DHT22;8185;57.818;15.224;2024-01-30T06:31:24;3.30;99.90
16160;DHT22;8185;57.818;15.224;2024-01-30T06:33:51;3.30;99.90
16160;DHT22;8185;57.818;15.224;2024-01-30T06:36:18;3.30;99.90
16160;DHT22;8185;57.818;15.224;2024-01-30T06:38:45;3.30;99.90
16160;DHT22;8185;57.818;15.224;2024-01-30T06:41:14;3.30;99.90
16160;DHT22;8185;57.818;15.224;2024-01-30T06:43:41;3.30;99.90
16160;DHT22;8185;57.818;15.224;2024-01-30T06:46:10;3.20;99.90
16160;DHT22;8185;57.818;15.224;2024-01-30T06:48:38;3.30;99.90
16160;DHT22;8185;57.818;15.224;2024-01-30T06:51:06;3.20;99.90
16160;DHT22;8185;57.818;15.224;2024-01-30T06:53:33;3.20;99.90
16160;DHT22;8185;57.818;15.224;2024-01-30T06:56:00;3.30;99.90
16160;DHT22;8185;57.818;15.224;2024-01-30T06:58:29;3.40;99.90
16160;DHT22;8185;57.818;15.224;2024-01-30T07:00:56;3.30;99.90
16160;DHT22;8185;57.818;15.224;2024-01-30T07:03:23;3.30;99.90
16160;DHT22;8185;57.818;15.224;2024-01-30T07:05:50;3.30;99.90
16160;DHT22;8185;57.818;15.224;2024-01-30T07:08:17;3.30;99.90
16160;DHT22;8185;57.818;15.224;2024-01-30T07:10:44;3.30;99.90
16160;DHT22;8185;57.818;15.224;2024-01-30T07:13:11;3.30;99.90
16160;DHT22;8185;57.818;15.224;2024-01-30T07:15:39;3.20;99.90
16160;DHT22;8185;57.818;15.224;2024-01-30T07:18:06;3.20;99.90
16160;DHT22;8185;57.818;15.224;2024-01-30T07:20:33;3.20;99.90
16160;DHT22;8185;57.818;15.224;2024-01-30T07:23:00;3.20;99.90
16160;DHT22;8185;57.818;15.224;2024-01-30T07:25:28;3.20;99.90
16160;DHT22;8185;57.818;15.224;2024-01-30T07:27:55;3.20;99.90
16160;DHT22;8185;57.818;15.224;2024-01-30T07:30:22;3.20;99.90
16160;DHT22;8185;57.818;15.224;2024-01-30T07:32:51;3.20;99.90
16160;DHT22;8185;57.818;15.224;2024-01-30T07:35:18;3.20;99.90
16160;DHT22;8185;57.818;15.224;2024-01-30T07:37:45;3.20;99.90
16160;DHT22;8185;57.818;15.224;2024-01-30T07:40:12;3.20;99.90
16160;DHT22;8185;57.818;15.224;2024-01-30T07:42:39;3.20;99.90
16160;DHT22;8185;57.818;15.224;2024-01-30T07:45:06;3.20;99.90
16160;DHT22;8185;57.818;15.224;2024-01-30T07:47:33;3.20;99.90
16160;DHT22;8185;57.818;15.224;2024-01-30T07:50:02;3.20;99.90
16160;DHT22;8185;57.818;15.224;2024-01-30T07:52:29;3.20;99.90
16160;DHT22;8185;57.818;15.224;2024-01-30T07:54:55;3.20;99.90
16160;DHT22;8185;57.818;15.224;2024-01-30T07:57:22;3.20;99.90
16160;DHT22;8185;57.818;15.224;2024-01-30T07:59:50;3.20;99.90
16160;DHT22;8185;57.818;15.224;2024-01-30T08:02:17;3.20;99.90
16160;DHT22;8185;57.818;15.224;2024-01-30T08:04:44;3.30;99.90
16160;DHT22;8185;57.818;15.224;2024-01-30T08:07:15;3.30;99.90
16160;DHT22;8185;57.818;15.224;2024-01-30T08:09:42;3.70;99.90
16160;DHT22;8185;57.818;15.224;2024-01-30T08:12:09;3.30;99.90
16160;DHT22;8185;57.818;15.224;2024-01-30T08:14:37;3.30;99.90
16160;DHT22;8185;57.818;15.224;2024-01-30T08:17:04;3.20;99.90
16160;DHT22;8185;57.818;15.224;2024-01-30T08:19:33;3.20;99.90
16160;DHT22;8185;57.818;15.224;2024-01-30T08:22:00;3.30;99.90
16160;DHT22;8185;57.818;15.224;2024-01-30T08:24:28;3.30;99.90
16160;DHT22;8185;57.818;15.224;2024-01-30T08:26:55;3.30;99.90
16160;DHT22;8185;57.818;15.224;2024-01-30T08:29:24;3.30;99.90
16160;DHT22;8185;57.818;15.224;2024-01-30T08:31:50;3.50;99.90
16160;DHT22;8185;57.818;15.224;2024-01-30T08:34:17;3.50;99.90
16160;DHT22;8185;57.818;15.224;2024-01-30T08:36:44;3.50;99.90
16160;DHT22;8185;57.818;15.224;2024-01-30T08:39:11;3.60;99.90
16160;DHT22;8185;57.818;15.224;2024-01-30T08:41:40;3.60;99.90
16160;DHT22;8185;57.818;15.224;2024-01-30T08:44:07;3.60;99.90
16160;DHT22;8185;57.818;15.224;2024-01-30T08:46:34;3.60;99.90
16160;DHT22;8185;57.818;15.224;2024-01-30T08:49:01;3.60;99.90
16160;DHT22;8185;57.818;15.224;2024-01-30T08:51:28;3.70;99.90
16160;DHT22;8185;57.818;15.224;2024-01-30T08:53:55;3.70;99.90
16160;DHT22;8185;57.818;15.224;2024-01-30T08:56:22;3.70;99.90
16160;DHT22;8185;57.818;15.224;2024-01-30T08:58:50;3.70;99.90
16160;DHT22;8185;57.818;15.224;2024-01-30T09:01:17;3.80;99.90
16160;DHT22;8185;57.818;15.224;2024-01-30T09:03:44;3.80;99.90
16160;DHT22;8185;57.818;15.224;2024-01-30T09:06:12;3.80;99.90
16160;DHT22;8185;57.818;15.224;2024-01-30T09:08:39;3.80;99.90
16160;DHT22;8185;57.818;15.224;2024-01-30T09:11:08;3.70;99.90
16160;DHT22;8185;57.818;15.224;2024-01-30T09:13:35;3.80;99.90
16160;DHT22;8185;57.818;15.224;2024-01-30T09:16:04;3.80;99.90
16160;DHT22;8185;57.818;15.224;2024-01-30T09:18:31;3.80;99.90
16160;DHT22;8185;57.818;15.224;2024-01-30T09:20:58;3.70;99.90
16160;DHT22;8185;57.818;15.224;2024-01-30T09:23:26;3.80;99.90
16160;DHT22;8185;57.818;15.224;2024-01-30T09:25:53;3.80;99.90
16160;DHT22;8185;57.818;15.224;2024-01-30T09:28:20;3.80;99.90
16160;DHT22;8185;57.818;15.224;2024-01-30T09:30:47;3.80;99.90
16160;DHT22;8185;57.818;15.224;2024-01-30T09:33:16;3.80;99.90
16160;DHT22;8185;57.818;15.224;2024-01-30T09:35:43;3.70;99.90
16160;DHT22;8185;57.818;15.224;2024-01-30T09:38:10;3.70;99.90
16160;DHT22;8185;57.818;15.224;2024-01-30T09:40:37;3.70;99.90
16160;DHT22;8185;57.818;15.224;2024-01-30T09:43:04;3.70;99.90
16160;DHT22;8185;57.818;15.224;2024-01-30T09:45:31;3.70;99.90
16160;DHT22;8185;57.818;15.224;2024-01-30T09:47:59;3.70;99.90
16160;DHT22;8185;57.818;15.224;2024-01-30T09:50:27;3.70;99.90
16160;DHT22;8185;57.818;15.224;2024-01-30T09:52:55;3.80;99.90
16160;DHT22;8185;57.818;15.224;2024-01-30T09:55:23;3.80;99.90
16160;DHT22;8185;57.818;15.224;2024-01-30T09:57:50;3.80;99.90
16160;DHT22;8185;57.818;15.224;2024-01-30T10:00:17;3.80;99.90
16160;DHT22;8185;57.818;15.224;2024-01-30T10:02:44;3.90;99.90
16160;DHT22;8185;57.818;15.224;2024-01-30T10:05:11;3.90;99.90
16160;DHT22;8185;57.818;15.224;2024-01-30T10:07:52;4.00;99.90
16160;DHT22;8185;57.818;15.224;2024-01-30T10:10:21;4.00;99.90
16160;DHT22;8185;57.818;15.224;2024-01-30T10:12:48;4.00;99.90
16160;DHT22;8185;57.818;15.224;2024-01-30T10:15:15;4.10;99.90
16160;DHT22;8185;57.818;15.224;2024-01-30T10:17:44;4.20;99.90
16160;DHT22;8185;57.818;15.224;2024-01-30T10:20:11;4.20;99.90
16160;DHT22;8185;57.818;15.224;2024-01-30T10:22:39;4.20;99.90
16160;DHT22;8185;57.818;15.224;2024-01-30T10:25:09;4.20;99.90
16160;DHT22;8185;57.818;15.224;2024-01-30T10:27:36;4.20;99.90
16160;DHT22;8185;57.818;15.224;2024-01-30T10:30:03;4.30;99.90
16160;DHT22;8185;57.818;15.224;2024-01-30T10:32:30;4.30;99.90
16160;DHT22;8185;57.818;15.224;2024-01-30T10:34:57;4.40;99.90
16160;DHT22;8185;57.818;15.224;2024-01-30T10:37:25;4.40;99.90
16160;DHT22;8185;57.818;15.224;2024-01-30T10:39:53;4.40;99.90
16160;DHT22;8185;57.818;15.224;2024-01-30T10:42:23;4.30;99.90
16160;DHT22;8185;57.818;15.224;2024-01-30T10:44:55;4.40;99.90
16160;DHT22;8185;57.818;15.224;2024-01-30T10:47:25;4.40;99.90
16160;DHT22;8185;57.818;15.224;2024-01-30T10:49:52;4.40;99.90
16160;DHT22;8185;57.818;15.224;2024-01-30T10:52:20;4.50;99.90
16160;DHT22;8185;57.818;15.224;2024-01-30T10:54:48;4.50;99.90
16160;DHT22;8185;57.818;15.224;2024-01-30T10:57:16;4.60;99.90
16160;DHT22;8185;57.818;15.224;2024-01-30T10:59:45;4.50;99.90
16160;DHT22;8185;57.818;15.224;2024-01-30T11:02:13;4.60;99.90
16160;DHT22;8185;57.818;15.224;2024-01-30T11:04:41;4.60;99.90
16160;DHT22;8185;57.818;15.224;2024-01-30T11:07:14;4.60;99.90
16160;DHT22;8185;57.818;15.224;2024-01-30T11:09:48;4.60;99.90
16160;DHT22;8185;57.818;15.224;2024-01-30T11:12:15;4.60;99.90
16160;DHT22;8185;57.818;15.224;2024-01-30T11:14:42;4.50;99.90
16160;DHT22;8185;57.818;15.224;2024-01-30T11:17:11;4.50;99.90
16160;DHT22;8185;57.818;15.224;2024-01-30T11:19:39;4.60;99.90
16160;DHT22;8185;57.818;15.224;2024-01-30T11:22:08;4.60;99.90
16160;DHT22;8185;57.818;15.224;2024-01-30T11:24:41;4.60;99.90
16160;DHT22;8185;57.818;15.224;2024-01-30T11:27:08;4.60;99.90
16160;DHT22;8185;57.818;15.224;2024-01-30T11:29:36;4.70;99.90
16160;DHT22;8185;57.818;15.224;2024-01-30T11:32:03;4.80;99.90
16160;DHT22;8185;57.818;15.224;2024-01-30T11:34:32;4.90;99.90
16160;DHT22;8185;57.818;15.224;2024-01-30T11:36:59;4.80;99.90
16160;DHT22;8185;57.818;15.224;2024-01-30T11:39:29;4.90;99.90
16160;DHT22;8185;57.818;15.224;2024-01-30T11:41:56;4.80;99.90
16160;DHT22;8185;57.818;15.224;2024-01-30T11:44:23;4.70;99.90
16160;DHT22;8185;57.818;15.224;2024-01-30T11:46:51;4.80;99.90
16160;DHT22;8185;57.818;15.224;2024-01-30T11:49:19;4.70;99.90
16160;DHT22;8185;57.818;15.224;2024-01-30T11:51:47;4.70;99.90
16160;DHT22;8185;57.818;15.224;2024-01-30T11:54:15;4.60;99.90
16160;DHT22;8185;57.818;15.224;2024-01-30T11:56:42;4.60;99.90
16160;DHT22;8185;57.818;15.224;2024-01-30T11:59:09;5.10;99.90
16160;DHT22;8185;57.818;15.224;2024-01-30T12:01:36;4.70;99.90
16160;DHT22;8185;57.818;15.224;2024-01-30T12:04:03;4.60;99.90
16160;DHT22;8185;57.818;15.224;2024-01-30T12:06:34;4.70;99.90
16160;DHT22;8185;57.818;15.224;2024-01-30T12:09:02;4.70;99.90
16160;DHT22;8185;57.818;15.224;2024-01-30T12:11:30;4.70;99.90
16160;DHT22;8185;57.818;15.224;2024-01-30T12:13:57;4.60;99.90
16160;DHT22;8185;57.818;15.224;2024-01-30T12:16:24;4.60;99.90
16160;DHT22;8185;57.818;15.224;2024-01-30T12:18:59;4.70;99.90
16160;DHT22;8185;57.818;15.224;2024-01-30T12:21:25;4.60;99.90
16160;DHT22;8185;57.818;15.224;2024-01-30T12:23:52;4.60;99.90
16160;DHT22;8185;57.818;15.224;2024-01-30T12:26:21;4.60;99.90
16160;DHT22;8185;57.818;15.224;2024-01-30T12:28:48;4.70;99.90
16160;DHT22;8185;57.818;15.224;2024-01-30T12:31:15;4.70;99.90
16160;DHT22;8185;57.818;15.224;2024-01-30T12:33:42;4.70;99.90
16160;DHT22;8185;57.818;15.224;2024-01-30T12:36:09;4.70;99.90
16160;DHT22;8185;57.818;15.224;2024-01-30T12:38:38;4.60;99.90
16160;DHT22;8185;57.818;15.224;2024-01-30T12:41:06;4.60;99.90
16160;DHT22;8185;57.818;15.224;2024-01-30T12:43:35;4.50;99.90
16160;DHT22;8185;57.818;15.224;2024-01-30T12:46:02;4.60;99.90
16160;DHT22;8185;57.818;15.224;2024-01-30T12:48:29;4.50;99.90
16160;DHT22;8185;57.818;15.224;2024-01-30T12:50:56;4.60;99.90
16160;DHT22;8185;57.818;15.224;2024-01-30T12:53:23;4.80;99.90
16160;DHT22;8185;57.818;15.224;2024-01-30T12:55:50;4.80;99.90
16160;DHT22;8185;57.818;15.224;2024-01-30T12:58:17;4.60;99.90
16160;DHT22;8185;57.818;15.224;2024-01-30T13:00:45;4.60;99.90
16160;DHT22;8185;57.818;15.224;2024-01-30T13:03:13;4.60;99.90
16160;DHT22;8185;57.818;15.224;2024-01-30T13:05:40;4.60;99.90
16160;DHT22;8185;57.818;15.224;2024-01-30T13:08:06;4.50;99.90
16160;DHT22;8185;57.818;15.224;2024-01-30T13:10:33;4.50;99.90
16160;DHT22;8185;57.818;15.224;2024-01-30T13:13:00;4.50;99.90
16160;DHT22;8185;57.818;15.224;2024-01-30T13:15:28;4.50;99.90
16160;DHT22;8185;57.818;15.224;2024-01-30T13:17:56;4.40;99.90
16160;DHT22;8185;57.818;15.224;2024-01-30T13:20:23;4.40;99.90
16160;DHT22;8185;57.818;15.224;2024-01-30T13:22:50;4.40;99.90
16160;DHT22;8185;57.818;15.224;2024-01-30T13:25:17;4.40;99.90
16160;DHT22;8185;57.818;15.224;2024-01-30T13:27:44;4.40;99.90
16160;DHT22;8185;57.818;15.224;2024-01-30T13:30:11;4.40;99.90
16160;DHT22;8185;57.818;15.224;2024-01-30T13:32:38;4.40;99.90
16160;DHT22;8185;57.818;15.224;2024-01-30T13:35:08;4.40;99.90
16160;DHT22;8185;57.818;15.224;2024-01-30T13:37:35;4.40;99.90
16160;DHT22;8185;57.818;15.224;2024-01-30T13:40:02;4.40;99.90
16160;DHT22;8185;57.818;15.224;2024-01-30T13:42:32;5.10;99.90
16160;DHT22;8185;57.818;15.224;2024-01-30T13:44:59;4.30;99.90
16160;DHT22;8185;57.818;15.224;2024-01-30T13:47:26;4.30;99.90
16160;DHT22;8185;57.818;15.224;2024-01-30T13:49:53;4.30;99.90
16160;DHT22;8185;57.818;15.224;2024-01-30T13:52:21;4.30;99.90
16160;DHT22;8185;57.818;15.224;2024-01-30T13:54:48;4.30;99.90
16160;DHT22;8185;57.818;15.224;2024-01-30T13:57:15;4.40;99.90
16160;DHT22;8185;57.818;15.224;2024-01-30T13:59:42;4.30;99.90
16160;DHT22;8185;57.818;15.224;2024-01-30T14:02:09;4.30;99.90
16160;DHT22;8185;57.818;15.224;2024-01-30T14:04:36;4.30;99.90
16160;DHT22;8185;57.818;15.224;2024-01-30T14:07:03;4.30;99.90
16160;DHT22;8185;57.818;15.224;2024-01-30T14:09:32;4.40;99.90
16160;DHT22;8185;57.818;15.224;2024-01-30T14:12:00;4.40;99.90
16160;DHT22;8185;57.818;15.224;2024-01-30T14:14:26;4.40;99.90
16160;DHT22;8185;57.818;15.224;2024-01-30T14:16:53;4.40;99.90
16160;DHT22;8185;57.818;15.224;2024-01-30T14:19:21;4.40;99.90
16160;DHT22;8185;57.818;15.224;2024-01-30T14:21:48;4.40;99.90
16160;DHT22;8185;57.818;15.224;2024-01-30T14:24:15;4.40;99.90
16160;DHT22;8185;57.818;15.224;2024-01-30T14:26:43;4.40;99.90
16160;DHT22;8185;57.818;15.224;2024-01-30T14:29:10;4.40;99.90
16160;DHT22;8185;57.818;15.224;2024-01-30T14:31:37;4.40;99.90
16160;DHT22;8185;57.818;15.224;2024-01-30T14:34:04;4.40;99.90
16160;DHT22;8185;57.818;15.224;2024-01-30T14:36:31;4.40;99.90
16160;DHT22;8185;57.818;15.224;2024-01-30T14:38:58;4.30;99.90
16160;DHT22;8185;57.818;15.224;2024-01-30T14:41:25;4.20;99.90
16160;DHT22;8185;57.818;15.224;2024-01-30T14:43:56;4.20;99.90
16160;DHT22;8185;57.818;15.224;2024-01-30T14:46:22;4.20;99.90
16160;DHT22;8185;57.818;15.224;2024-01-30T14:48:49;4.20;99.90
16160;DHT22;8185;57.818;15.224;2024-01-30T14:51:17;4.20;99.90
16160;DHT22;8185;57.818;15.224;2024-01-30T14:53:44;4.20;99.90
16160;DHT22;8185;57.818;15.224;2024-01-30T14:56:11;4.10;99.90
16160;DHT22;8185;57.818;15.224;2024-01-30T14:58:38;4.10;99.90
16160;DHT22;8185;57.818;15.224;2024-01-30T15:01:06;4.10;99.90
16160;DHT22;8185;57.818;15.224;2024-01-30T15:03:33;4.20;99.90
16160;DHT22;8185;57.818;15.224;2024-01-30T15:06:01;4.20;99.90
16160;DHT22;8185;57.818;15.224;2024-01-30T15:08:30;4.20;99.90
16160;DHT22;8185;57.818;15.224;2024-01-30T15:10:58;4.20;99.90
16160;DHT22;8185;57.818;15.224;2024-01-30T15:13:25;4.20;99.90
16160;DHT22;8185;57.818;15.224;2024-01-30T15:15:52;4.10;99.90
16160;DHT22;8185;57.818;15.224;2024-01-30T15:18:20;4.10;99.90
16160;DHT22;8185;57.818;15.224;2024-01-30T15:20:47;4.20;99.90
16160;DHT22;8185;57.818;15.224;2024-01-30T15:23:14;4.10;99.90
16160;DHT22;8185;57.818;15.224;2024-01-30T15:25:42;4.10;99.90
16160;DHT22;8185;57.818;15.224;2024-01-30T15:28:09;4.10;99.90
16160;DHT22;8185;57.818;15.224;2024-01-30T15:30:36;4.10;99.90
16160;DHT22;8185;57.818;15.224;2024-01-30T15:33:03;4.10;99.90
16160;DHT22;8185;57.818;15.224;2024-01-30T15:35:31;3.50;99.90
16160;DHT22;8185;57.818;15.224;2024-01-30T15:37:58;4.10;99.90
16160;DHT22;8185;57.818;15.224;2024-01-30T15:40:25;4.10;99.90
16160;DHT22;8185;57.818;15.224;2024-01-30T15:42:52;4.10;99.90
16160;DHT22;8185;57.818;15.224;2024-01-30T15:45:19;4.10;99.90